createdAt,value
2024-05-09T00:04:49.507Z,6.88
2024-05-09T00:09:55.595Z,7.80
2024-05-09T00:15:04.874Z,6.97
2024-05-09T00:20:17.872Z,8.27
2024-05-09T00:25:30.219Z,7.97
2024-05-09T00:30:42.560Z,8.00
2024-05-09T00:35:48.569Z,8.25
2024-05-09T00:40:54.799Z,8.15
2024-05-09T00:46:03.719Z,6.78
2024-05-09T00:51:10.315Z,7.00
2024-05-09T00:56:17.511Z,6.90
2024-05-09T01:01:28.299Z,5.60
2024-05-09T01:06:33.653Z,6.07
2024-05-09T01:11:40.164Z,6.35
2024-05-09T01:16:48.553Z,5.97
2024-05-09T01:21:54.020Z,6.38
2024-05-09T01:27:02.477Z,5.85
2024-05-09T01:32:08.814Z,6.50
2024-05-09T01:37:14.312Z,5.68
2024-05-09T01:42:22.753Z,5.00
2024-05-09T01:47:28.369Z,5.20
2024-05-09T01:52:39.438Z,5.40
2024-05-09T01:57:47.656Z,4.38
2024-05-09T02:02:53.783Z,4.72
2024-05-09T02:07:59.326Z,5.25
2024-05-09T02:13:08.712Z,5.90
2024-05-09T02:18:14.390Z,8.13
2024-05-09T02:23:21.206Z,6.88
2024-05-09T02:28:29.530Z,7.53
2024-05-09T02:33:35.230Z,8.32
2024-05-09T02:38:41.110Z,7.57
2024-05-09T02:43:49.378Z,5.32
2024-05-09T02:48:55.024Z,6.40
2024-05-09T02:54:00.363Z,6.47
2024-05-09T02:59:08.394Z,7.15
2024-05-09T03:04:13.866Z,6.25
2024-05-09T03:09:19.220Z,6.47
2024-05-09T03:14:27.639Z,7.10
2024-05-09T03:19:33.143Z,8.18
2024-05-09T03:24:40.950Z,7.50
2024-05-09T03:29:49.149Z,8.05
2024-05-09T03:34:54.676Z,8.60
2024-05-09T03:40:00.282Z,7.35
2024-05-09T03:45:08.915Z,7.53
2024-05-09T03:50:22.002Z,8.68
2024-05-09T03:55:34.380Z,7.78
2024-05-09T04:00:45.169Z,8.80
2024-05-09T04:05:50.467Z,8.85
2024-05-09T04:10:56.021Z,8.73
2024-05-09T04:16:04.271Z,11.60
2024-05-09T04:21:10.252Z,11.32
2024-05-09T04:26:15.708Z,11.60
2024-05-09T04:31:23.868Z,11.02
2024-05-09T04:36:29.335Z,19.55
2024-05-09T04:41:34.748Z,11.32
2024-05-09T04:46:43.019Z,11.38
2024-05-09T04:51:48.533Z,9.75
2024-05-09T04:56:54.024Z,11.10
2024-05-09T05:02:02.290Z,9.48
2024-05-09T05:07:07.970Z,9.98
2024-05-09T05:12:34.445Z,12.05
2024-05-09T05:17:42.902Z,17.45
2024-05-09T05:22:48.494Z,10.55
2024-05-09T05:27:56.080Z,8.63
2024-05-09T05:33:04.505Z,8.45
2024-05-09T05:38:11.954Z,8.90
2024-05-09T05:43:21.227Z,8.68
2024-05-09T05:48:29.573Z,8.30
2024-05-09T05:53:36.275Z,7.53
2024-05-09T05:58:43.588Z,7.30
2024-05-09T06:03:51.912Z,7.70
2024-05-09T06:08:58.625Z,8.75
2024-05-09T06:14:05.746Z,8.50
2024-05-09T06:19:14.138Z,9.63
2024-05-09T06:24:19.606Z,8.70
2024-05-09T06:29:25.210Z,8.98
2024-05-09T06:34:33.565Z,9.60
2024-05-09T06:39:42.108Z,10.48
2024-05-09T06:44:47.584Z,10.38
2024-05-09T06:49:55.802Z,9.60
2024-05-09T06:55:01.265Z,41.45
2024-05-09T07:00:10.293Z,11.27
2024-05-09T07:05:20.805Z,10.75
2024-05-09T07:10:32.803Z,9.93
2024-05-09T07:15:41.266Z,8.82
2024-05-09T07:20:50.665Z,8.05
2024-05-09T07:25:57.996Z,7.82
2024-05-09T07:31:03.652Z,9.90
2024-05-09T07:36:12.486Z,11.07
2024-05-09T07:41:19.504Z,10.25
2024-05-09T07:47:20.272Z,9.15
2024-05-09T07:53:21.165Z,7.90
2024-05-09T07:57:19.144Z,8.52
2024-05-09T08:02:24.975Z,8.35
2024-05-09T08:07:35.553Z,8.38
2024-05-09T08:12:41.112Z,6.90
2024-05-09T08:17:46.770Z,7.05
2024-05-09T08:22:55.222Z,6.63
2024-05-09T08:28:01.037Z,5.90
2024-05-09T08:33:08.038Z,5.78
2024-05-09T08:38:16.625Z,6.00
2024-05-09T08:43:23.217Z,5.82
2024-05-09T08:48:29.790Z,6.22
2024-05-09T08:53:43.947Z,5.20
2024-05-09T08:59:04.674Z,4.47
2024-05-09T09:04:13.647Z,4.55
2024-05-09T09:09:52.726Z,4.22
2024-05-09T09:15:04.515Z,5.13
2024-05-09T09:20:16.435Z,4.53
2024-05-09T09:25:32.101Z,4.13
2024-05-09T09:30:42.185Z,4.00
2024-05-09T09:36:05.009Z,3.83
2024-05-09T09:41:26.417Z,4.13
2024-05-09T09:46:34.485Z,4.25
2024-05-09T09:51:44.022Z,4.28
2024-05-09T09:56:54.389Z,5.35
2024-05-09T10:02:00.277Z,4.80
2024-05-09T10:07:11.653Z,5.32
2024-05-09T10:12:24.656Z,5.15
2024-05-09T10:17:32.411Z,4.93
2024-05-09T10:22:38.208Z,3.70
2024-05-09T10:27:46.804Z,3.38
2024-05-09T10:32:56.812Z,3.08
2024-05-09T10:38:09.178Z,2.67
2024-05-09T10:43:22.954Z,2.97
2024-05-09T10:48:30.227Z,2.30
2024-05-09T10:53:57.178Z,3.13
2024-05-09T10:59:06.986Z,2.97
2024-05-09T11:04:14.272Z,1.67
2024-05-09T11:09:27.755Z,1.30
2024-05-09T11:14:42.298Z,1.33
2024-05-09T11:19:54.087Z,2.67
2024-05-09T11:25:00.956Z,1.42
2024-05-09T11:35:30.626Z,1.80
2024-05-09T11:40:36.154Z,1.30
2024-05-09T11:45:44.400Z,1.10
2024-05-09T11:50:49.878Z,1.52
2024-05-09T11:55:55.457Z,1.38
2024-05-09T12:01:04.874Z,1.70
2024-05-09T12:06:10.250Z,1.67
2024-05-09T12:11:16.862Z,1.52
2024-05-09T12:16:25.176Z,1.48
2024-05-09T12:21:30.780Z,1.30
2024-05-09T12:26:36.275Z,1.70
2024-05-09T12:31:44.298Z,2.25
2024-05-09T12:36:49.773Z,1.80
2024-05-09T12:41:55.263Z,1.90
2024-05-09T12:47:03.319Z,2.03
2024-05-09T12:52:09.422Z,1.80
2024-05-09T12:57:15.010Z,1.60
2024-05-09T13:02:23.297Z,1.85
2024-05-09T13:07:28.898Z,1.90
2024-05-09T13:12:34.326Z,4.57
2024-05-09T13:17:42.640Z,2.15
2024-05-09T13:22:49.315Z,1.60
2024-05-09T13:27:55.021Z,1.65
2024-05-09T13:33:03.346Z,1.73
2024-05-09T13:38:09.162Z,1.58
2024-05-09T13:43:15.170Z,1.65
2024-05-09T13:48:23.594Z,1.70
2024-05-09T13:53:29.195Z,1.55
2024-05-09T13:58:34.685Z,2.00
2024-05-09T14:03:43.323Z,1.80
2024-05-09T14:08:49.163Z,1.48
2024-05-09T14:13:54.526Z,1.63
2024-05-09T14:19:03.558Z,1.55
2024-05-09T14:24:11.815Z,1.42
2024-05-09T14:29:18.481Z,1.50
2024-05-09T14:34:27.497Z,2.20
2024-05-09T14:39:36.003Z,1.58
2024-05-09T14:44:41.385Z,1.25
2024-05-09T14:49:52.539Z,1.25
2024-05-09T14:55:00.737Z,1.42
2024-05-09T15:00:16.974Z,1.30
2024-05-09T15:05:29.434Z,1.40
2024-05-09T15:10:36.613Z,1.40
2024-05-09T15:15:45.154Z,1.30
2024-05-09T15:20:56.574Z,1.40
2024-05-09T15:26:02.166Z,1.20
2024-05-09T15:31:07.865Z,1.55
2024-05-09T15:36:16.822Z,1.70
2024-05-09T15:41:25.621Z,1.52
2024-05-09T15:46:31.002Z,1.70
2024-05-09T15:51:42.499Z,1.80
2024-05-09T15:56:51.220Z,1.75
2024-05-09T16:01:57.376Z,2.00
2024-05-09T16:07:05.537Z,1.50
2024-05-09T16:12:11.899Z,1.30
2024-05-09T16:17:17.417Z,1.42
2024-05-09T16:22:25.481Z,1.65
2024-05-09T16:27:31.353Z,1.50
2024-05-09T16:32:36.972Z,1.42
2024-05-09T16:37:45.236Z,1.45
2024-05-09T16:42:53.829Z,1.85
2024-05-09T16:47:59.687Z,1.80
2024-05-09T16:53:08.915Z,1.55
2024-05-09T16:58:15.053Z,1.60
2024-05-09T17:03:21.509Z,1.90
2024-05-09T17:08:29.580Z,2.00
2024-05-09T17:13:39.437Z,1.25
2024-05-09T17:18:46.534Z,1.27
2024-05-09T17:23:55.973Z,1.80
2024-05-09T17:29:01.714Z,1.88
2024-05-09T17:34:07.276Z,1.60
2024-05-09T17:39:15.767Z,1.60
2024-05-09T17:44:21.317Z,1.85
2024-05-09T17:49:27.015Z,1.70
2024-05-09T17:54:35.970Z,1.55
2024-05-09T17:59:41.559Z,1.45
2024-05-09T18:04:47.127Z,1.60
2024-05-09T18:09:55.245Z,1.90
2024-05-09T18:15:00.679Z,1.60
2024-05-09T18:20:08.976Z,1.80
2024-05-09T18:25:17.604Z,1.60
2024-05-09T18:30:28.301Z,2.00
2024-05-09T18:35:39.888Z,1.80
2024-05-09T18:40:49.389Z,1.48
2024-05-09T18:45:55.449Z,1.70
2024-05-09T18:51:01.068Z,1.40
2024-05-09T18:56:10.529Z,1.50
2024-05-09T19:01:16.249Z,1.75
2024-05-09T19:06:24.610Z,1.40
2024-05-09T19:11:32.941Z,1.58
2024-05-09T19:16:39.212Z,1.45
2024-05-09T19:21:44.686Z,1.85
2024-05-09T19:26:53.242Z,1.92
2024-05-09T19:31:59.061Z,1.70
2024-05-09T19:37:04.594Z,1.70
2024-05-09T19:42:12.807Z,2.03
2024-05-09T19:47:18.371Z,2.30
2024-05-09T19:52:23.762Z,2.22
2024-05-09T19:57:31.990Z,2.47
2024-05-09T20:02:37.587Z,2.30
2024-05-09T20:07:43.368Z,2.38
2024-05-09T20:12:51.638Z,2.90
2024-05-09T20:17:58.067Z,2.50
2024-05-09T20:23:04.041Z,2.30
2024-05-09T20:28:12.650Z,2.38
2024-05-09T20:33:18.256Z,2.78
2024-05-09T20:38:23.666Z,2.90
2024-05-09T20:43:32.025Z,3.03
2024-05-09T20:48:37.716Z,2.97
2024-05-09T20:53:45.157Z,3.05
2024-05-09T20:58:53.270Z,3.75
2024-05-09T21:03:58.859Z,3.00
2024-05-09T21:09:04.522Z,3.13
2024-05-09T21:14:12.671Z,3.67
2024-05-09T21:19:18.234Z,3.58
2024-05-09T21:24:23.667Z,3.15
2024-05-09T21:29:32.845Z,3.95
2024-05-09T21:34:38.359Z,2.88
2024-05-09T21:39:46.846Z,3.40
2024-05-09T21:44:54.940Z,2.72
2024-05-09T21:50:03.718Z,3.20
2024-05-09T21:55:10.458Z,3.13
2024-05-09T22:00:28.945Z,2.70
2024-05-09T22:05:43.849Z,3.47
2024-05-09T22:10:49.514Z,4.28
2024-05-09T22:15:58.518Z,3.25
2024-05-09T22:21:04.190Z,3.75
2024-05-09T22:26:09.907Z,3.92
2024-05-09T22:31:18.783Z,3.88
2024-05-09T22:36:26.150Z,3.88
2024-05-09T22:41:32.195Z,3.58
2024-05-09T22:46:42.264Z,3.47
2024-05-09T22:51:47.779Z,3.08
2024-05-09T22:56:53.208Z,3.38
2024-05-09T23:02:10.573Z,3.72
2024-05-09T23:07:16.997Z,3.70
2024-05-09T23:12:23.528Z,3.33
2024-05-09T23:17:32.770Z,3.95
2024-05-09T23:22:38.370Z,3.38
2024-05-09T23:27:43.919Z,3.38
2024-05-09T23:32:52.094Z,3.70
2024-05-09T23:37:57.708Z,3.67
2024-05-09T23:43:03.322Z,3.40
2024-05-09T23:48:12.440Z,3.17
2024-05-09T23:53:18.003Z,3.00
2024-05-09T23:58:23.365Z,3.25
